Time;durP1;ratioP1;P1;durP2;ratioP2;P2;SDS_P1;SDS_P2;PMS_P1;PMS_P2;Temp;Humidity;BMP_temperature;BMP_pressure;BME280_temperature;BME280_humidity;BME280_pressure;Samples;Min_cycle;Max_cycle;Signal;HPM_P1;HPM_P2
2024/03/17 00:01:49;;;;;;;5.75;4.50;;;9.40;99.90;;;;;;5031245;28;20101;-60
2024/03/17 00:04:15;;;;;;;5.85;4.30;;;9.30;99.90;;;;;;5031394;28;20041;-55
2024/03/17 00:06:41;;;;;;;9.75;4.25;;;9.40;99.90;;;;;;5031019;28;20056;-56
2024/03/17 00:09:09;;;;;;;7.82;4.68;;;9.40;99.90;;;;;;5013717;28;20037;-57
2024/03/17 00:11:35;;;;;;;5.47;4.65;;;9.30;99.90;;;;;;5031499;28;20095;-53
2024/03/17 00:14:01;;;;;;;7.93;4.95;;;9.40;99.90;;;;;;5031993;28;20481;-55
2024/03/17 00:16:27;;;;;;;8.95;6.38;;;9.30;99.90;;;;;;5030240;28;20036;-52
2024/03/17 00:18:52;;;;;;;6.68;5.18;;;9.30;99.90;;;;;;5031379;28;20026;-53
2024/03/17 00:21:19;;;;;;;7.90;5.68;;;9.30;99.90;;;;;;5031219;28;20029;-59
2024/03/17 00:23:48;;;;;;;8.07;4.28;;;9.30;99.90;;;;;;5031207;28;20030;-52
2024/03/17 00:26:13;;;;;;;7.55;4.93;;;9.30;99.90;;;;;;5029859;28;20434;-52
2024/03/17 00:28:39;;;;;;;5.95;4.68;;;9.30;99.90;;;;;;5031155;28;20110;-56
2024/03/17 00:31:05;;;;;;;6.97;5.00;;;9.30;99.90;;;;;;5031266;28;20029;-52
2024/03/17 00:33:30;;;;;;;6.40;4.88;;;9.30;99.90;;;;;;5031187;28;20108;-57
2024/03/17 00:35:56;;;;;;;9.88;5.57;;;9.30;99.90;;;;;;5029760;28;20032;-56
2024/03/17 00:38:21;;;;;;;6.13;4.72;;;9.30;99.90;;;;;;5031462;28;20032;-50
2024/03/17 00:40:49;;;;;;;8.00;4.53;;;9.30;99.90;;;;;;5031631;28;20100;-55
2024/03/17 00:43:14;;;;;;;7.32;4.35;;;9.20;99.90;;;;;;5031269;28;20013;-55
2024/03/17 00:45:40;;;;;;;6.55;4.28;;;9.20;99.90;;;;;;5031873;28;20022;-54
2024/03/17 00:48:09;;;;;;;4.07;3.67;;;9.20;99.90;;;;;;5033889;28;20021;-53
2024/03/17 00:50:34;;;;;;;6.00;4.82;;;9.20;99.90;;;;;;5035155;28;20436;-58
2024/03/17 00:53:02;;;;;;;6.35;5.10;;;9.10;99.90;;;;;;5034742;28;20033;-48
2024/03/17 00:55:28;;;;;;;6.40;5.00;;;9.10;99.90;;;;;;5033692;28;20030;-54
2024/03/17 00:57:54;;;;;;;6.25;4.35;;;9.10;99.90;;;;;;5034856;28;20072;-53
2024/03/17 01:00:19;;;;;;;6.63;5.05;;;9.10;99.90;;;;;;5033688;28;20068;-53
2024/03/17 01:02:46;;;;;;;7.00;3.95;;;9.10;99.90;;;;;;5033610;28;20032;-55
2024/03/17 01:05:11;;;;;;;8.35;5.05;;;9.10;99.90;;;;;;5033640;28;20029;-53
2024/03/17 01:07:37;;;;;;;11.88;6.18;;;9.00;99.90;;;;;;5033448;28;20132;-55
2024/03/17 01:10:02;;;;;;;5.97;4.88;;;9.00;99.90;;;;;;5034668;28;20461;-51
2024/03/17 01:12:28;;;;;;;6.22;5.70;;;8.90;99.90;;;;;;5033237;28;20029;-55
2024/03/17 01:14:53;;;;;;;11.75;5.32;;;8.90;99.90;;;;;;5034824;28;20029;-54
2024/03/17 01:17:19;;;;;;;8.35;4.95;;;8.80;99.90;;;;;;5034286;28;20044;-50
2024/03/17 01:19:45;;;;;;;8.90;4.85;;;8.80;99.90;;;;;;5034373;28;20043;-49
2024/03/17 01:22:11;;;;;;;6.30;4.82;;;8.70;99.90;;;;;;5034335;28;20025;-51
2024/03/17 01:24:39;;;;;;;4.68;4.20;;;8.70;99.90;;;;;;5034749;28;20090;-50
2024/03/17 01:27:05;;;;;;;9.27;5.43;;;8.70;99.90;;;;;;5034228;28;20117;-49
2024/03/17 01:29:30;;;;;;;7.57;5.22;;;8.60;99.90;;;;;;5033713;28;20544;-56
2024/03/17 01:31:55;;;;;;;7.30;5.57;;;8.60;99.90;;;;;;5033537;28;20029;-52
2024/03/17 01:34:22;;;;;;;10.43;6.05;;;8.60;99.90;;;;;;5033705;28;20033;-55
2024/03/17 01:36:47;;;;;;;11.55;6.13;;;8.60;99.90;;;;;;5033838;28;20397;-51
2024/03/17 01:39:13;;;;;;;7.65;5.97;;;8.50;99.90;;;;;;5033349;28;20031;-52
2024/03/17 01:41:39;;;;;;;6.93;5.90;;;8.50;99.90;;;;;;5033862;28;20029;-55
2024/03/17 01:44:05;;;;;;;9.68;6.18;;;8.50;99.90;;;;;;5033181;28;20052;-51
2024/03/17 01:46:30;;;;;;;9.57;6.80;;;8.50;99.90;;;;;;5033631;28;20068;-54
2024/03/17 01:48:57;;;;;;;11.68;6.75;;;8.40;99.90;;;;;;5033956;28;20112;-55
2024/03/17 01:51:23;;;;;;;13.93;7.22;;;8.40;99.90;;;;;;5033290;28;20029;-51
2024/03/17 01:53:48;;;;;;;10.25;7.45;;;8.40;99.90;;;;;;5033917;28;20028;-47
2024/03/17 01:56:16;;;;;;;13.57;7.45;;;8.40;99.90;;;;;;5033943;28;20034;-48
2024/03/17 01:58:44;;;;;;;13.75;8.27;;;8.40;99.90;;;;;;5033650;28;20112;-51
2024/03/17 02:01:10;;;;;;;16.45;8.02;;;8.30;99.90;;;;;;5033479;28;20393;-52
2024/03/17 02:03:36;;;;;;;8.93;7.80;;;8.20;99.90;;;;;;5033618;28;20040;-52
2024/03/17 02:06:01;;;;;;;9.27;7.07;;;8.20;99.90;;;;;;5033279;28;20400;-54
2024/03/17 02:08:27;;;;;;;9.13;7.68;;;8.20;99.90;;;;;;5033445;28;20025;-54
2024/03/17 02:10:54;;;;;;;8.07;6.85;;;8.20;99.90;;;;;;5033476;28;20029;-48
2024/03/17 02:13:21;;;;;;;7.80;7.10;;;8.20;99.90;;;;;;5033355;28;20105;-53
2024/03/17 02:15:46;;;;;;;9.40;6.90;;;8.10;99.90;;;;;;5033453;28;20099;-53
2024/03/17 02:18:12;;;;;;;9.63;6.75;;;8.00;99.90;;;;;;5033071;28;20467;-53
2024/03/17 02:20:58;;;;;;;13.07;7.10;;;7.90;99.90;;;;;;5033133;28;20068;-56
2024/03/17 02:23:26;;;;;;;;;;;7.80;99.90;;;;;;5033606;28;20022;-52
2024/03/17 02:25:52;;;;;;;11.77;7.45;;;7.80;99.90;;;;;;5033276;28;20392;-54
2024/03/17 02:28:18;;;;;;;7.60;6.28;;;7.70;99.90;;;;;;5032747;28;20456;-48
2024/03/17 02:30:43;;;;;;;10.63;7.20;;;7.70;99.90;;;;;;5032654;28;20022;-48
2024/03/17 02:33:09;;;;;;;7.10;5.78;;;7.70;99.90;;;;;;5031547;28;20040;-49
2024/03/17 02:35:34;;;;;;;7.03;6.30;;;7.60;99.90;;;;;;5032801;28;20021;-50
2024/03/17 02:38:00;;;;;;;9.70;7.93;;;7.60;99.90;;;;;;5032518;28;20033;-52
2024/03/17 02:40:25;;;;;;;11.65;7.88;;;7.60;99.90;;;;;;5031376;28;20133;-50
2024/03/17 02:42:51;;;;;;;10.50;6.82;;;7.50;99.90;;;;;;5032651;28;20030;-50
2024/03/17 02:45:16;;;;;;;10.43;6.78;;;7.50;99.90;;;;;;5032637;28;20505;-44
2024/03/17 02:47:42;;;;;;;10.07;7.40;;;7.50;99.90;;;;;;5032343;28;20021;-48
2024/03/17 02:50:09;;;;;;;14.48;7.00;;;7.40;99.90;;;;;;5032626;28;20029;-48
2024/03/17 02:52:34;;;;;;;9.90;6.75;;;7.50;99.90;;;;;;5032405;28;20541;-49
2024/03/17 02:55:00;;;;;;;11.77;8.00;;;7.50;99.90;;;;;;5032556;28;20152;-51
2024/03/17 02:57:29;;;;;;;10.68;7.05;;;7.40;99.90;;;;;;5032268;28;20036;-52
2024/03/17 02:59:56;;;;;;;9.75;7.43;;;7.40;99.90;;;;;;5032276;28;20052;-49
2024/03/17 03:02:22;;;;;;;11.40;8.02;;;7.30;99.90;;;;;;5032367;28;20021;-51
2024/03/17 03:04:47;;;;;;;9.45;7.10;;;7.30;99.90;;;;;;5032267;28;20022;-49
2024/03/17 03:07:13;;;;;;;11.30;6.75;;;7.30;99.90;;;;;;5032064;28;20030;-51
2024/03/17 03:09:38;;;;;;;8.63;7.07;;;7.30;99.90;;;;;;5031528;28;20494;-52
2024/03/17 03:12:04;;;;;;;6.47;5.88;;;7.30;99.90;;;;;;5032298;28;20025;-52
2024/03/17 03:14:31;;;;;;;7.38;5.72;;;7.30;99.90;;;;;;5032239;28;20021;-56
2024/03/17 03:16:57;;;;;;;9.98;6.10;;;7.30;99.90;;;;;;5031947;28;20162;-52
2024/03/17 03:19:24;;;;;;;8.20;5.65;;;7.20;99.90;;;;;;5031748;28;20100;-48
2024/03/17 03:21:49;;;;;;;8.10;5.80;;;7.20;99.90;;;;;;5031995;28;20396;-49
2024/03/17 03:24:15;;;;;;;6.85;5.82;;;7.10;99.90;;;;;;5031804;28;20022;-47
2024/03/17 03:26:41;;;;;;;8.55;5.60;;;7.10;99.90;;;;;;5031755;28;20108;-50
2024/03/17 03:29:06;;;;;;;6.97;6.10;;;7.00;99.90;;;;;;5031679;28;20037;-48
2024/03/17 03:31:33;;;;;;;9.95;6.10;;;7.00;99.90;;;;;;5031433;28;20029;-48
2024/03/17 03:34:01;;;;;;;7.07;6.30;;;7.00;99.90;;;;;;5031476;28;20036;-51
2024/03/17 03:36:27;;;;;;;8.68;5.40;;;7.00;99.90;;;;;;5031516;28;20113;-54
2024/03/17 03:38:53;;;;;;;10.25;6.05;;;6.90;99.90;;;;;;5031504;28;20038;-51
2024/03/17 03:41:19;;;;;;;8.70;6.10;;;6.90;99.90;;;;;;5031319;28;20078;-48
2024/03/17 03:43:46;;;;;;;10.15;6.22;;;6.90;99.90;;;;;;5031618;28;20026;-48
2024/03/17 03:46:12;;;;;;;7.43;5.80;;;6.80;99.90;;;;;;5031251;28;20022;-49
2024/03/17 03:48:37;;;;;;;7.32;6.00;;;6.80;99.90;;;;;;5031634;28;20030;-49
2024/03/17 03:51:07;;;;;;;8.75;6.25;;;6.80;99.90;;;;;;5031396;28;20031;-54
2024/03/17 03:53:34;;;;;;;11.48;7.07;;;6.80;99.90;;;;;;5030996;28;20021;-53
2024/03/17 03:56:01;;;;;;;7.72;6.13;;;6.80;99.90;;;;;;5031350;28;20024;-49
2024/03/17 03:58:27;;;;;;;8.32;6.22;;;6.70;99.90;;;;;;5031183;28;20021;-52
2024/03/17 04:00:53;;;;;;;9.82;6.70;;;6.70;99.90;;;;;;5031307;28;20072;-48
2024/03/17 04:03:18;;;;;;;9.75;5.78;;;6.70;99.90;;;;;;5029960;28;20093;-50
2024/03/17 04:05:44;;;;;;;7.00;6.05;;;6.60;99.90;;;;;;5031429;28;20027;-51
2024/03/17 04:08:09;;;;;;;7.00;5.50;;;6.70;99.90;;;;;;5031403;28;20075;-48
2024/03/17 04:10:35;;;;;;;9.45;5.65;;;6.60;99.90;;;;;;5031358;28;20029;-49
2024/03/17 04:13:01;;;;;;;7.78;5.80;;;6.60;99.90;;;;;;5030988;28;20085;-51
2024/03/17 04:15:26;;;;;;;13.38;6.68;;;6.60;99.90;;;;;;5031122;28;20053;-51
2024/03/17 04:17:52;;;;;;;10.75;6.55;;;6.60;99.90;;;;;;5031055;28;20021;-48
2024/03/17 04:20:18;;;;;;;7.60;5.97;;;6.50;99.90;;;;;;5031049;28;20022;-49
2024/03/17 04:22:44;;;;;;;8.73;6.38;;;6.40;99.90;;;;;;5034871;28;20146;-50
2024/03/17 04:25:10;;;;;;;9.80;6.15;;;6.40;99.90;;;;;;5035243;28;20036;-50
2024/03/17 04:27:35;;;;;;;7.75;6.43;;;6.40;99.90;;;;;;5034825;28;20473;-51
2024/03/17 04:30:03;;;;;;;7.13;6.20;;;6.40;99.90;;;;;;5034910;28;20160;-52
2024/03/17 04:32:31;;;;;;;7.68;6.38;;;6.40;99.90;;;;;;5034868;28;20022;-55
2024/03/17 04:34:56;;;;;;;10.07;6.40;;;6.30;99.90;;;;;;5034912;28;20497;-48
2024/03/17 04:37:22;;;;;;;10.63;6.63;;;6.20;99.90;;;;;;5034578;28;20031;-48
2024/03/17 04:39:48;;;;;;;7.25;6.43;;;6.30;99.90;;;;;;5034676;28;20052;-52
2024/03/17 04:42:19;;;;;;;8.20;6.43;;;6.30;99.90;;;;;;5034699;28;20029;-51
2024/03/17 04:44:45;;;;;;;10.85;6.68;;;6.30;99.90;;;;;;5034936;28;20453;-48
2024/03/17 04:47:11;;;;;;;10.73;7.13;;;6.20;99.90;;;;;;5034534;28;20136;-48
2024/03/17 04:49:40;;;;;;;8.98;6.88;;;6.20;99.90;;;;;;5034744;28;20052;-51
2024/03/17 04:52:07;;;;;;;8.23;6.03;;;6.10;99.90;;;;;;5034282;28;20067;-50
2024/03/17 04:54:33;;;;;;;7.43;5.50;;;6.10;99.90;;;;;;5034614;28;20033;-50
2024/03/17 04:56:58;;;;;;;6.05;5.40;;;6.20;99.90;;;;;;5034469;28;20022;-48
2024/03/17 04:59:24;;;;;;;8.98;5.53;;;6.00;99.90;;;;;;5034348;28;20030;-50
2024/03/17 05:01:50;;;;;;;10.32;4.97;;;5.90;99.90;;;;;;5034545;28;20510;-55
2024/03/17 05:04:15;;;;;;;5.13;4.63;;;5.80;99.90;;;;;;5034432;28;20026;-49
2024/03/17 05:06:41;;;;;;;6.15;4.85;;;5.80;99.90;;;;;;5033078;28;20033;-49
2024/03/17 05:09:08;;;;;;;6.70;5.03;;;5.80;99.90;;;;;;5034404;28;20022;-49
2024/03/17 05:11:35;;;;;;;5.47;4.68;;;5.90;99.90;;;;;;5032880;28;20103;-48
2024/03/17 05:14:00;;;;;;;4.90;4.45;;;5.90;99.90;;;;;;5034264;28;20018;-52
2024/03/17 05:16:29;;;;;;;8.40;5.15;;;5.80;99.90;;;;;;5034079;28;20024;-45
2024/03/17 05:18:54;;;;;;;8.00;5.30;;;5.60;99.90;;;;;;5034231;28;20037;-54
2024/03/17 05:21:22;;;;;;;9.35;6.22;;;5.50;99.90;;;;;;5032555;28;20488;-47
2024/03/17 05:23:48;;;;;;;8.20;6.20;;;5.40;99.90;;;;;;5033894;28;20033;-48
2024/03/17 05:26:13;;;;;;;12.93;5.40;;;5.30;99.90;;;;;;5033741;28;20100;-50
2024/03/17 05:28:39;;;;;;;5.82;5.30;;;5.30;99.90;;;;;;5033851;28;20116;-49
2024/03/17 05:31:04;;;;;;;9.00;4.80;;;5.20;99.90;;;;;;5033570;28;20370;-48
2024/03/17 05:33:30;;;;;;;6.15;4.28;;;5.20;99.90;;;;;;5032145;28;20440;-51
2024/03/17 05:36:02;;;;;;;6.00;4.47;;;5.20;99.90;;;;;;5033853;28;20053;-48
2024/03/17 05:38:29;;;;;;;11.05;4.85;;;5.20;99.90;;;;;;5033713;28;20437;-50
2024/03/17 05:41:02;;;;;;;6.15;4.57;;;5.30;99.90;;;;;;5033632;28;20457;-49
2024/03/17 05:43:29;;;;;;;8.50;4.32;;;5.40;99.90;;;;;;5039939;28;20022;-50
2024/03/17 05:45:57;;;;;;;9.77;5.10;;;5.40;99.90;;;;;;5040182;28;20021;-47
2024/03/17 05:48:24;;;;;;;8.32;4.35;;;5.30;99.90;;;;;;5034060;28;20025;-49
2024/03/17 05:50:51;;;;;;;5.55;3.78;;;5.30;99.90;;;;;;5033541;28;20492;-52
2024/03/17 05:53:18;;;;;;;7.10;4.30;;;;;;;;;;5033225;28;20509;-48
2024/03/17 05:55:44;;;;;;;5.00;4.20;;;5.30;99.90;;;;;;5033779;28;20543;-49
2024/03/17 05:58:10;;;;;;;12.82;4.60;;;5.40;99.90;;;;;;5033228;28;20038;-50
2024/03/17 06:00:37;;;;;;;6.75;4.00;;;5.40;99.90;;;;;;5033357;28;20033;-50
2024/03/17 06:03:03;;;;;;;5.05;3.45;;;5.50;99.90;;;;;;5033397;28;20489;-54
2024/03/17 06:05:35;;;;;;;6.68;3.70;;;5.60;99.90;;;;;;5033546;28;20060;-51
2024/03/17 06:08:05;;;;;;;5.55;4.00;;;5.70;99.90;;;;;;5031955;28;20038;-50
2024/03/17 06:10:32;;;;;;;4.80;3.70;;;5.70;99.90;;;;;;5033112;28;20076;-52
2024/03/17 06:12:58;;;;;;;5.18;3.78;;;5.80;99.90;;;;;;5033575;28;20100;-48
2024/03/17 06:15:24;;;;;;;8.07;4.20;;;5.90;99.90;;;;;;5033159;28;20057;-50
2024/03/17 06:17:53;;;;;;;4.53;3.65;;;5.90;99.90;;;;;;5033071;28;20376;-52
2024/03/17 06:20:28;;;;;;;4.45;3.20;;;6.00;99.90;;;;;;5032963;28;20037;-53
2024/03/17 06:22:54;;;;;;;4.10;3.47;;;6.10;99.90;;;;;;5033146;28;20104;-47
2024/03/17 06:25:23;;;;;;;5.85;3.72;;;6.20;99.90;;;;;;5033016;28;20025;-51
2024/03/17 06:27:52;;;;;;;9.73;4.22;;;6.30;99.90;;;;;;5032927;28;20025;-51
2024/03/17 06:30:18;;;;;;;3.92;3.35;;;6.40;99.90;;;;;;5032643;28;20029;-49
2024/03/17 06:32:45;;;;;;;5.47;3.42;;;6.50;99.90;;;;;;5032875;28;20056;-52
2024/03/17 06:35:11;;;;;;;4.68;3.83;;;6.60;99.90;;;;;;5032781;28;20025;-50
2024/03/17 06:37:38;;;;;;;4.18;3.15;;;6.80;99.90;;;;;;5032555;28;20025;-56
2024/03/17 06:40:04;;;;;;;3.40;3.10;;;7.00;99.90;;;;;;5032333;28;20022;-52
2024/03/17 06:42:32;;;;;;;8.98;3.88;;;7.10;99.90;;;;;;5031201;28;20544;-52
2024/03/17 06:44:58;;;;;;;4.43;3.38;;;7.20;99.90;;;;;;5031875;28;20029;-50
2024/03/17 06:47:25;;;;;;;3.33;3.03;;;7.20;99.90;;;;;;5032398;28;20032;-56
2024/03/17 06:49:50;;;;;;;5.43;3.25;;;7.40;99.90;;;;;;5032226;28;20022;-52
2024/03/17 06:52:16;;;;;;;4.15;2.67;;;7.50;99.90;;;;;;5031896;28;20030;-48
2024/03/17 06:54:41;;;;;;;6.88;3.30;;;7.80;99.90;;;;;;5032290;28;20401;-51
2024/03/17 06:57:07;;;;;;;6.05;3.08;;;8.00;99.90;;;;;;5032127;28;20071;-51
2024/03/17 06:59:33;;;;;;;3.13;2.83;;;8.20;99.90;;;;;;5032052;28;20400;-48
2024/03/17 07:01:58;;;;;;;4.28;2.92;;;8.50;99.90;;;;;;5032339;28;20017;-51
2024/03/17 07:04:24;;;;;;;3.38;2.90;;;8.70;99.90;;;;;;5030779;28;20068;-52
2024/03/17 07:06:50;;;;;;;4.45;2.83;;;9.00;99.90;;;;;;5031978;28;20033;-49
2024/03/17 07:09:17;;;;;;;3.25;2.95;;;9.20;99.90;;;;;;5031866;28;20030;-51
2024/03/17 07:11:44;;;;;;;5.55;3.30;;;9.30;99.90;;;;;;5032153;28;20108;-53
2024/03/17 07:14:09;;;;;;;2.45;2.25;;;9.50;99.90;;;;;;5032107;28;20052;-52
2024/03/17 07:16:35;;;;;;;3.63;2.92;;;9.50;99.90;;;;;;5031763;28;20465;-53
2024/03/17 07:19:02;;;;;;;4.00;2.90;;;9.50;99.90;;;;;;5032052;28;20017;-55
2024/03/17 07:21:27;;;;;;;3.88;3.42;;;9.80;99.90;;;;;;5032272;28;20416;-52
2024/03/17 07:23:53;;;;;;;9.13;3.00;;;9.80;99.90;;;;;;5031725;28;20108;-51
2024/03/17 07:26:18;;;;;;;4.38;3.10;;;10.00;99.90;;;;;;5031736;28;20021;-49
2024/03/17 07:28:44;;;;;;;3.65;3.15;;;9.70;99.90;;;;;;5031806;28;20130;-48
2024/03/17 07:31:10;;;;;;;5.03;2.80;;;9.60;99.90;;;;;;5031587;28;20017;-48
2024/03/17 07:33:36;;;;;;;3.05;2.60;;;9.40;99.90;;;;;;5031634;28;20086;-51
2024/03/17 07:36:02;;;;;;;7.15;2.75;;;10.00;99.90;;;;;;5031643;28;20116;-51
2024/03/17 07:38:30;;;;;;;5.03;3.15;;;10.70;99.90;;;;;;5044508;23;20077;-42
2024/03/17 07:41:03;;;;;;;5.90;2.83;;;10.90;99.90;;;;;;5030156;28;20033;-45
2024/03/17 07:43:31;;;;;;;4.90;2.80;;;11.00;99.90;;;;;;5025840;28;20030;-44
2024/03/17 07:46:03;;;;;;;3.05;2.72;;;11.20;99.90;;;;;;5011979;28;20470;-41
2024/03/17 07:48:29;;;;;;;2.50;2.40;;;11.40;99.90;;;;;;5011742;28;20032;-42
2024/03/17 07:51:00;;;;;;;2.88;2.58;;;12.10;99.90;;;;;;5011651;28;20068;-42
2024/03/17 07:53:26;;;;;;;4.25;2.63;;;13.50;99.90;;;;;;5011383;28;20030;-42
2024/03/17 07:56:03;;;;;;;6.72;2.67;;;13.50;99.90;;;;;;5011693;28;20095;-47
2024/03/17 07:58:30;;;;;;;3.22;2.55;;;13.40;99.90;;;;;;5011570;28;20030;-44
2024/03/17 08:01:00;;;;;;;3.30;2.20;;;12.70;99.90;;;;;;5011637;28;20048;-41
2024/03/17 08:03:27;;;;;;;3.13;2.92;;;12.20;99.90;;;;;;5011575;28;20497;-42
2024/03/17 08:05:53;;;;;;;5.97;2.70;;;11.90;99.90;;;;;;5011753;28;20026;-45
2024/03/17 08:08:19;;;;;;;2.90;2.47;;;11.70;99.90;;;;;;5011461;28;20404;-42
2024/03/17 08:10:46;;;;;;;4.40;2.90;;;11.60;99.90;;;;;;5011707;28;20017;-44
2024/03/17 08:13:13;;;;;;;2.83;2.63;;;11.50;99.90;;;;;;5011781;28;20030;-42
2024/03/17 08:15:39;;;;;;;3.92;2.70;;;11.50;99.90;;;;;;5011474;28;20076;-43
2024/03/17 08:18:07;;;;;;;3.45;3.15;;;11.40;99.90;;;;;;5011485;28;20045;-44
2024/03/17 08:20:36;;;;;;;8.13;3.00;;;11.50;99.90;;;;;;5026645;28;20418;-47
2024/03/17 08:23:02;;;;;;;3.30;2.97;;;11.20;99.90;;;;;;5011521;28;20083;-43
2024/03/17 08:25:28;;;;;;;3.47;2.42;;;11.20;99.90;;;;;;5011341;28;20113;-42
2024/03/17 08:27:54;;;;;;;5.13;2.90;;;11.20;99.90;;;;;;5011544;28;20486;-40
2024/03/17 08:30:19;;;;;;;4.78;2.83;;;11.30;99.90;;;;;;5011301;28;20034;-43
2024/03/17 08:32:44;;;;;;;3.15;2.88;;;11.60;99.90;;;;;;5010390;28;20045;-42
2024/03/17 08:35:10;;;;;;;2.83;2.63;;;11.60;99.90;;;;;;5011333;28;20111;-42
2024/03/17 08:37:38;;;;;;;4.32;3.67;;;11.70;99.90;;;;;;5011264;28;20036;-42
2024/03/17 08:40:06;;;;;;;5.07;3.22;;;11.70;99.90;;;;;;5011046;28;20528;-42
2024/03/17 08:42:32;;;;;;;4.43;3.50;;;11.80;99.90;;;;;;5011385;28;20393;-44
2024/03/17 08:44:57;;;;;;;3.35;2.25;;;11.90;99.90;;;;;;5011360;28;20310;-42
2024/03/17 08:47:23;;;;;;;3.58;2.58;;;11.80;99.90;;;;;;5011282;28;20520;-43
2024/03/17 08:49:51;;;;;;;6.18;2.95;;;11.70;99.90;;;;;;5011235;28;20089;-44
2024/03/17 08:52:17;;;;;;;3.63;2.53;;;11.60;99.90;;;;;;5010858;28;20049;-43
2024/03/17 08:54:46;;;;;;;3.08;2.75;;;11.90;99.90;;;;;;5011243;28;20025;-45
2024/03/17 08:57:12;;;;;;;4.13;2.88;;;12.10;99.90;;;;;;5011189;28;20026;-42
2024/03/17 08:59:38;;;;;;;4.35;2.40;;;11.70;99.90;;;;;;5011005;28;20085;-45
2024/03/17 09:02:03;;;;;;;4.72;2.75;;;11.60;99.90;;;;;;5011303;28;20038;-44
2024/03/17 09:04:30;;;;;;;4.07;2.95;;;11.60;99.90;;;;;;5009843;28;20065;-43
2024/03/17 09:06:56;;;;;;;7.13;2.90;;;11.70;99.90;;;;;;5011651;28;20038;-45
2024/03/17 09:09:22;;;;;;;2.75;2.55;;;11.80;99.90;;;;;;5015179;28;20022;-45
2024/03/17 09:11:48;;;;;;;5.07;2.88;;;11.90;99.90;;;;;;5016047;28;20061;-46
2024/03/17 09:14:14;;;;;;;4.60;2.55;;;12.20;99.90;;;;;;5036283;28;20055;-44
2024/03/17 09:16:39;;;;;;;4.65;2.50;;;12.40;99.90;;;;;;5034129;28;20025;-45
2024/03/17 09:19:05;;;;;;;4.30;2.40;;;13.10;99.90;;;;;;5034294;28;20070;-49
2024/03/17 09:21:30;;;;;;;2.45;2.25;;;13.20;99.90;;;;;;5033805;28;20021;-44
2024/03/17 09:23:56;;;;;;;3.85;1.98;;;13.20;99.90;;;;;;5034428;28;20026;-43
2024/03/17 09:26:22;;;;;;;5.63;2.50;;;13.50;99.90;;;;;;5034157;28;20038;-45
2024/03/17 09:28:47;;;;;;;2.35;1.70;;;13.70;99.90;;;;;;5034020;28;20366;-48
2024/03/17 09:31:13;;;;;;;3.75;2.03;;;13.80;99.90;;;;;;5032219;28;20094;-45
2024/03/17 09:33:39;;;;;;;2.53;1.90;;;13.90;99.90;;;;;;5034218;28;20025;-44
2024/03/17 09:36:06;;;;;;;3.75;1.85;;;14.10;99.90;;;;;;5033701;28;20034;-43
2024/03/17 09:38:33;;;;;;;3.88;2.10;;;14.30;99.90;;;;;;5033416;28;20484;-45
2024/03/17 09:41:02;;;;;;;1.98;1.88;;;15.00;98.30;;;;;;5033892;28;20028;-44
2024/03/17 09:43:28;;;;;;;3.80;2.10;;;15.00;98.70;;;;;;5031752;28;20029;-47
2024/03/17 09:45:57;;;;;;;2.03;1.83;;;15.50;97.60;;;;;;5022882;28;20021;-43
2024/03/17 09:48:23;;;;;;;4.05;1.83;;;15.50;97.60;;;;;;5033037;28;20539;-45
2024/03/17 09:51:07;;;;;;;2.55;2.10;;;15.50;97.20;;;;;;5032180;28;20025;-44
2024/03/17 09:53:38;;;;;;;4.53;1.60;;;15.40;97.40;;;;;;5029538;28;20030;-44
2024/03/17 09:56:11;;;;;;;2.78;1.50;;;15.40;97.40;;;;;;5035242;28;20025;-44
2024/03/17 09:58:37;;;;;;;2.22;1.70;;;15.30;97.00;;;;;;5033001;28;20025;-48
2024/03/17 10:01:03;;;;;;;6.25;2.25;;;15.00;96.80;;;;;;5035445;28;20044;-42
2024/03/17 10:03:45;;;;;;;3.90;2.00;;;14.90;97.20;;;;;;5039102;28;20040;-46
2024/03/17 10:06:11;;;;;;;3.28;2.03;;;15.20;96.90;;;;;;5032959;28;20493;-43
2024/03/17 10:08:54;;;;;;;2.92;1.60;;;15.50;96.10;;;;;;5033531;28;20033;-44
2024/03/17 10:11:21;;;;;;;3.92;1.95;;;15.70;95.70;;;;;;5033461;28;20029;-44
2024/03/17 10:14:08;;;;;;;2.67;1.80;;;15.90;95.10;;;;;;5032843;28;20025;-43
2024/03/17 10:16:37;;;;;;;2.60;1.30;;;15.90;95.50;;;;;;5032840;28;20045;-50
2024/03/17 10:19:10;;;;;;;7.50;1.80;;;16.30;95.20;;;;;;5031574;28;20437;-48
2024/03/17 10:21:36;;;;;;;2.92;1.67;;;16.70;95.40;;;;;;5013255;28;20513;-44
2024/03/17 10:24:08;;;;;;;1.98;1.85;;;17.00;95.20;;;;;;5021190;28;20031;-44
2024/03/17 10:26:46;;;;;;;2.50;2.30;;;16.80;94.40;;;;;;5033413;28;20022;-43
2024/03/17 10:29:25;;;;;;;4.15;2.40;;;16.60;95.00;;;;;;5033476;28;20032;-46
2024/03/17 10:31:59;;;;;;;4.43;2.25;;;16.60;95.10;;;;;;5033214;28;20017;-46
2024/03/17 10:34:28;;;;;;;3.05;2.38;;;16.40;95.50;;;;;;5032805;28;20090;-44
2024/03/17 10:37:12;;;;;;;19.08;15.30;;;16.20;96.00;;;;;;5032111;28;20053;-47
2024/03/17 10:39:40;;;;;;;3.58;2.83;;;16.00;96.00;;;;;;5032820;28;20026;-50
2024/03/17 10:42:07;;;;;;;7.28;4.07;;;16.00;96.40;;;;;;5032610;28;20032;-46
2024/03/17 10:44:35;;;;;;;10.82;2.75;;;15.80;96.00;;;;;;5032610;28;20031;-47
2024/03/17 10:47:02;;;;;;;6.28;2.45;;;15.90;97.70;;;;;;5032377;28;20030;-47
2024/03/17 10:49:31;;;;;;;3.05;2.65;;;15.60;97.00;;;;;;5027698;28;20668;-46
2024/03/17 10:52:08;;;;;;;3.70;2.58;;;15.30;97.40;;;;;;5032408;28;20025;-48
2024/03/17 10:54:34;;;;;;;4.20;3.08;;;14.80;97.60;;;;;;5032381;28;20024;-53
2024/03/17 10:57:32;;;;;;;3.42;2.90;;;14.60;98.10;;;;;;5032483;28;20068;-50
2024/03/17 10:59:59;;;;;;;6.13;2.90;;;14.40;99.20;;;;;;5029897;28;20021;-50
2024/03/17 11:02:32;;;;;;;3.20;2.90;;;14.30;99.50;;;;;;5033867;28;20040;-49
2024/03/17 11:05:00;;;;;;;2.58;2.38;;;14.30;99.90;;;;;;5033729;28;20040;-46
2024/03/17 11:07:26;;;;;;;4.03;3.35;;;14.20;99.90;;;;;;5032435;28;20047;-47
2024/03/17 11:09:54;;;;;;;4.32;3.20;;;14.00;99.90;;;;;;5031552;28;20127;-45
2024/03/17 11:12:44;;;;;;;4.00;2.63;;;14.00;99.90;;;;;;5032079;28;20389;-44
2024/03/17 11:15:18;;;;;;;3.65;3.28;;;13.90;99.90;;;;;;5032079;28;20026;-43
2024/03/17 11:17:50;;;;;;;5.03;3.25;;;14.00;99.90;;;;;;5031344;28;20017;-43
2024/03/17 11:20:23;;;;;;;4.75;3.90;;;14.10;99.90;;;;;;5031008;28;20028;-45
2024/03/17 11:22:51;;;;;;;4.90;3.78;;;14.30;99.90;;;;;;5031245;28;20091;-46
2024/03/17 11:25:25;;;;;;;3.85;3.50;;;14.30;99.90;;;;;;5032260;28;20040;-46
2024/03/17 11:27:55;;;;;;;7.15;3.90;;;14.30;99.90;;;;;;5032283;28;20040;-45
2024/03/17 11:30:54;;;;;;;9.13;4.10;;;14.40;99.90;;;;;;5031306;28;20026;-50
2024/03/17 11:33:38;;;;;;;4.45;3.33;;;14.40;99.90;;;;;;5031680;28;20017;-51
2024/03/17 11:36:24;;;;;;;4.93;3.28;;;14.40;99.90;;;;;;5032160;28;20108;-46
2024/03/17 11:39:01;;;;;;;7.60;2.80;;;14.60;99.90;;;;;;5031422;28;20289;-47
2024/03/17 11:41:40;;;;;;;3.75;3.25;;;14.60;99.90;;;;;;5035775;28;20036;-48
2024/03/17 11:44:21;;;;;;;8.95;4.03;;;14.60;99.90;;;;;;5030160;28;20493;-45
2024/03/17 11:46:55;;;;;;;13.00;4.60;;;14.80;99.90;;;;;;5036219;28;20021;-50
2024/03/17 11:49:26;;;;;;;8.27;4.40;;;14.80;99.90;;;;;;5031599;28;20389;-52
2024/03/17 11:51:54;;;;;;;3.97;3.67;;;14.60;99.90;;;;;;5031581;28;20519;-46
2024/03/17 11:54:23;;;;;;;5.90;3.88;;;14.60;99.90;;;;;;5031448;28;20033;-49
2024/03/17 11:56:51;;;;;;;6.95;4.03;;;14.40;99.90;;;;;;5031204;28;20021;-47
2024/03/17 11:59:19;;;;;;;6.78;4.00;;;14.50;99.90;;;;;;5030937;28;20026;-53
2024/03/17 12:01:47;;;;;;;5.82;4.38;;;14.60;99.90;;;;;;5032058;28;20501;-48
2024/03/17 12:04:14;;;;;;;6.80;4.63;;;14.50;99.90;;;;;;5031457;28;20033;-45
2024/03/17 12:06:39;;;;;;;7.00;4.13;;;14.30;99.90;;;;;;5031488;28;20066;-48
2024/03/17 12:09:16;;;;;;;6.15;4.10;;;14.20;99.90;;;;;;5030944;28;20108;-53
2024/03/17 12:11:41;;;;;;;5.15;4.20;;;14.20;99.90;;;;;;5031529;28;20049;-49
2024/03/17 12:14:20;;;;;;;5.78;4.65;;;14.30;99.90;;;;;;5030961;28;20064;-47
2024/03/17 12:16:57;;;;;;;6.32;4.18;;;14.20;99.90;;;;;;5030794;28;20049;-41
2024/03/17 12:19:24;;;;;;;91.88;53.65;;;14.20;99.90;;;;;;5030738;28;20025;-45
2024/03/17 12:21:54;;;;;;;16.17;10.25;;;14.20;99.90;;;;;;5031360;28;20029;-40
2024/03/17 12:24:30;;;;;;;12.23;7.88;;;14.20;99.90;;;;;;5031349;28;20104;-44
2024/03/17 12:27:00;;;;;;;5.32;4.13;;;14.30;99.90;;;;;;5031140;28;20030;-46
2024/03/17 12:29:32;;;;;;;5.22;4.47;;;14.30;99.90;;;;;;5030514;28;20026;-43
2024/03/17 12:32:00;;;;;;;5.85;4.22;;;14.60;99.90;;;;;;5031184;28;20071;-45
2024/03/17 12:34:28;;;;;;;4.60;3.83;;;14.60;99.90;;;;;;5031544;28;20546;-47
2024/03/17 12:36:55;;;;;;;7.40;5.50;;;14.70;99.90;;;;;;5031257;28;20400;-41
2024/03/17 12:39:23;;;;;;;4.97;4.07;;;14.80;99.90;;;;;;5030901;28;20075;-48
2024/03/17 12:42:13;;;;;;;5.65;4.85;;;14.90;99.90;;;;;;5031575;28;20075;-47
2024/03/17 12:44:46;;;;;;;7.85;5.38;;;14.90;99.90;;;;;;5035320;28;20400;-43
2024/03/17 12:47:18;;;;;;;8.13;4.90;;;15.00;99.90;;;;;;5034267;28;20037;-45
2024/03/17 12:49:46;;;;;;;7.75;5.03;;;14.90;99.90;;;;;;5034103;28;20445;-49
2024/03/17 12:52:19;;;;;;;8.80;5.28;;;14.80;99.90;;;;;;5035094;28;20064;-47
2024/03/17 12:54:52;;;;;;;6.38;4.78;;;14.90;99.90;;;;;;5035627;28;20066;-46
2024/03/17 13:00:33;;;;;;;9.90;5.85;;;14.70;99.90;;;;;;5015183;28;20103;-47